sensor_id;sensor_type;location;lat;lon;timestamp;pressure;altitude;pressure_sealevel;temperature;humidity
81997;BME280;71500;50.806;8.774;2023-07-31T00:02:29;99354.23;;;17.66;62.29
81997;BME280;71500;50.806;8.774;2023-07-31T00:05:01;99356.84;;;17.68;62.35
81997;BME280;71500;50.806;8.774;2023-07-31T00:07:33;99355.98;;;17.71;62.41
81997;BME280;71500;50.806;8.774;2023-07-31T00:10:05;99357.71;;;17.73;62.36
81997;BME280;71500;50.806;8.774;2023-07-31T00:12:37;99350.88;;;17.74;62.44
81997;BME280;71500;50.806;8.774;2023-07-31T00:15:10;99347.02;;;17.75;62.35
81997;BME280;71500;50.806;8.774;2023-07-31T00:17:42;99344.30;;;17.75;62.56
81997;BME280;71500;50.806;8.774;2023-07-31T00:20:14;99342.21;;;17.75;62.34
81997;BME280;71500;50.806;8.774;2023-07-31T00:22:45;99341.14;;;17.73;62.37
81997;BME280;71500;50.806;8.774;2023-07-31T00:25:17;99340.66;;;17.71;62.23
81997;BME280;71500;50.806;8.774;2023-07-31T00:27:48;99343.55;;;17.70;62.32
81997;BME280;71500;50.806;8.774;2023-07-31T00:30:20;99343.54;;;17.68;62.38
81997;BME280;71500;50.806;8.774;2023-07-31T00:32:51;99341.19;;;17.67;62.33
81997;BME280;71500;50.806;8.774;2023-07-31T00:35:22;99340.55;;;17.65;62.27
81997;BME280;71500;50.806;8.774;2023-07-31T00:37:54;99335.35;;;17.64;62.35
81997;BME280;71500;50.806;8.774;2023-07-31T00:40:26;99338.20;;;17.62;62.36
81997;BME280;71500;50.806;8.774;2023-07-31T00:42:58;99338.25;;;17.62;62.36
81997;BME280;71500;50.806;8.774;2023-07-31T00:45:32;99337.48;;;17.61;62.48
81997;BME280;71500;50.806;8.774;2023-07-31T00:48:05;99333.91;;;17.59;62.43
81997;BME280;71500;50.806;8.774;2023-07-31T00:50:38;99329.89;;;17.58;62.37
81997;BME280;71500;50.806;8.774;2023-07-31T00:53:10;99328.30;;;17.58;62.56
81997;BME280;71500;50.806;8.774;2023-07-31T00:55:42;99325.77;;;17.58;62.56
81997;BME280;71500;50.806;8.774;2023-07-31T00:58:13;99318.45;;;17.59;62.55
81997;BME280;71500;50.806;8.774;2023-07-31T01:00:45;99318.20;;;17.64;62.46
81997;BME280;71500;50.806;8.774;2023-07-31T01:03:17;99310.05;;;17.68;62.36
81997;BME280;71500;50.806;8.774;2023-07-31T01:05:54;99311.66;;;17.72;62.36
81997;BME280;71500;50.806;8.774;2023-07-31T01:08:35;99313.80;;;17.74;62.32
81997;BME280;71500;50.806;8.774;2023-07-31T01:11:13;99312.58;;;17.76;62.23
81997;BME280;71500;50.806;8.774;2023-07-31T01:13:47;99308.24;;;17.78;62.21
81997;BME280;71500;50.806;8.774;2023-07-31T01:16:19;99307.92;;;17.79;62.14
81997;BME280;71500;50.806;8.774;2023-07-31T01:18:50;99308.92;;;17.79;62.23
81997;BME280;71500;50.806;8.774;2023-07-31T01:21:35;99310.21;;;17.79;62.20
81997;BME280;71500;50.806;8.774;2023-07-31T01:24:27;99300.25;;;17.78;62.24
81997;BME280;71500;50.806;8.774;2023-07-31T01:27:06;99299.36;;;17.77;62.29
81997;BME280;71500;50.806;8.774;2023-07-31T01:29:42;99300.39;;;17.76;62.34
81997;BME280;71500;50.806;8.774;2023-07-31T01:32:14;99299.74;;;17.74;62.37
81997;BME280;71500;50.806;8.774;2023-07-31T01:34:48;99299.95;;;17.73;62.43
81997;BME280;71500;50.806;8.774;2023-07-31T01:37:20;99296.08;;;17.70;62.62
81997;BME280;71500;50.806;8.774;2023-07-31T01:39:53;99299.03;;;17.68;62.58
81997;BME280;71500;50.806;8.774;2023-07-31T01:42:24;99300.92;;;17.66;62.70
81997;BME280;71500;50.806;8.774;2023-07-31T01:44:56;99303.75;;;17.64;62.86
81997;BME280;71500;50.806;8.774;2023-07-31T01:47:27;99299.63;;;17.60;63.04
81997;BME280;71500;50.806;8.774;2023-07-31T01:49:59;99298.84;;;17.58;63.15
81997;BME280;71500;50.806;8.774;2023-07-31T01:52:31;99295.44;;;17.59;63.10
81997;BME280;71500;50.806;8.774;2023-07-31T01:55:03;99296.92;;;17.60;63.04
81997;BME280;71500;50.806;8.774;2023-07-31T01:57:36;99299.17;;;17.60;63.19
81997;BME280;71500;50.806;8.774;2023-07-31T02:00:09;99300.15;;;17.60;63.21
81997;BME280;71500;50.806;8.774;2023-07-31T02:02:41;99296.52;;;17.61;63.38
81997;BME280;71500;50.806;8.774;2023-07-31T02:05:13;99294.08;;;17.60;63.29
81997;BME280;71500;50.806;8.774;2023-07-31T02:07:45;99286.77;;;17.60;63.43
81997;BME280;71500;50.806;8.774;2023-07-31T02:10:16;99286.25;;;17.60;63.57
81997;BME280;71500;50.806;8.774;2023-07-31T02:12:48;99284.50;;;17.59;63.50
81997;BME280;71500;50.806;8.774;2023-07-31T02:15:20;99280.29;;;17.58;63.53
81997;BME280;71500;50.806;8.774;2023-07-31T02:17:51;99274.60;;;17.57;63.62
81997;BME280;71500;50.806;8.774;2023-07-31T02:20:23;99273.73;;;17.55;63.63
81997;BME280;71500;50.806;8.774;2023-07-31T02:22:55;99274.11;;;17.53;63.73
81997;BME280;71500;50.806;8.774;2023-07-31T02:25:26;99276.05;;;17.51;63.82
81997;BME280;71500;50.806;8.774;2023-07-31T02:27:58;99269.80;;;17.49;63.79
81997;BME280;71500;50.806;8.774;2023-07-31T02:30:30;99274.02;;;17.47;63.88
81997;BME280;71500;50.806;8.774;2023-07-31T02:33:01;99270.72;;;17.49;64.05
81997;BME280;71500;50.806;8.774;2023-07-31T02:35:33;99269.58;;;17.51;64.02
81997;BME280;71500;50.806;8.774;2023-07-31T02:38:05;99272.41;;;17.53;64.04
81997;BME280;71500;50.806;8.774;2023-07-31T02:40:36;99275.00;;;17.54;64.13
81997;BME280;71500;50.806;8.774;2023-07-31T02:43:08;99281.05;;;17.54;64.48
81997;BME280;71500;50.806;8.774;2023-07-31T02:45:40;99276.73;;;17.54;65.20
81997;BME280;71500;50.806;8.774;2023-07-31T02:48:11;99277.87;;;17.52;65.72
81997;BME280;71500;50.806;8.774;2023-07-31T02:50:43;99273.59;;;17.51;65.71
81997;BME280;71500;50.806;8.774;2023-07-31T02:53:14;99275.48;;;17.48;65.78
81997;BME280;71500;50.806;8.774;2023-07-31T02:55:46;99279.59;;;17.45;65.96
81997;BME280;71500;50.806;8.774;2023-07-31T02:58:17;99278.36;;;17.42;66.55
81997;BME280;71500;50.806;8.774;2023-07-31T03:00:49;99280.04;;;17.40;66.89
81997;BME280;71500;50.806;8.774;2023-07-31T03:03:20;99279.83;;;17.39;67.57
81997;BME280;71500;50.806;8.774;2023-07-31T03:05:52;99281.28;;;17.41;67.50
81997;BME280;71500;50.806;8.774;2023-07-31T03:08:24;99281.31;;;17.40;67.64
81997;BME280;71500;50.806;8.774;2023-07-31T03:10:56;99284.48;;;17.39;67.70
81997;BME280;71500;50.806;8.774;2023-07-31T03:13:27;99284.70;;;17.39;67.75
81997;BME280;71500;50.806;8.774;2023-07-31T03:15:59;99282.96;;;17.39;68.03
81997;BME280;71500;50.806;8.774;2023-07-31T03:18:30;99283.59;;;17.38;68.70
81997;BME280;71500;50.806;8.774;2023-07-31T03:21:02;99291.36;;;17.39;68.70
81997;BME280;71500;50.806;8.774;2023-07-31T03:23:33;99295.05;;;17.38;69.10
81997;BME280;71500;50.806;8.774;2023-07-31T03:26:08;99299.55;;;17.37;69.03
81997;BME280;71500;50.806;8.774;2023-07-31T03:28:40;99298.48;;;17.35;69.18
81997;BME280;71500;50.806;8.774;2023-07-31T03:31:11;99300.13;;;17.34;69.61
81997;BME280;71500;50.806;8.774;2023-07-31T03:33:43;99302.62;;;17.31;70.01
81997;BME280;71500;50.806;8.774;2023-07-31T03:36:15;99297.34;;;17.29;70.31
81997;BME280;71500;50.806;8.774;2023-07-31T03:38:47;99298.09;;;17.29;70.64
81997;BME280;71500;50.806;8.774;2023-07-31T03:41:19;99304.90;;;17.27;70.73
81997;BME280;71500;50.806;8.774;2023-07-31T03:43:51;99304.29;;;17.25;70.91
81997;BME280;71500;50.806;8.774;2023-07-31T03:46:21;99296.92;;;17.22;71.07
81997;BME280;71500;50.806;8.774;2023-07-31T03:48:53;99295.36;;;17.19;71.33
81997;BME280;71500;50.806;8.774;2023-07-31T03:51:25;99294.42;;;17.13;71.61
81997;BME280;71500;50.806;8.774;2023-07-31T03:53:57;99296.86;;;17.10;71.71
81997;BME280;71500;50.806;8.774;2023-07-31T03:56:28;99289.80;;;17.07;71.81
81997;BME280;71500;50.806;8.774;2023-07-31T03:59:02;99281.86;;;17.05;71.90
81997;BME280;71500;50.806;8.774;2023-07-31T04:01:34;99274.42;;;17.03;72.07
81997;BME280;71500;50.806;8.774;2023-07-31T04:04:06;99270.10;;;17.01;72.14
81997;BME280;71500;50.806;8.774;2023-07-31T04:06:37;99262.69;;;17.03;72.35
81997;BME280;71500;50.806;8.774;2023-07-31T04:09:09;99260.66;;;17.04;72.45
81997;BME280;71500;50.806;8.774;2023-07-31T04:11:41;99260.79;;;17.04;72.16
81997;BME280;71500;50.806;8.774;2023-07-31T04:14:12;99257.15;;;17.04;72.19
81997;BME280;71500;50.806;8.774;2023-07-31T04:16:44;99256.15;;;17.04;72.32
81997;BME280;71500;50.806;8.774;2023-07-31T04:19:15;99251.14;;;17.02;72.46
81997;BME280;71500;50.806;8.774;2023-07-31T04:21:47;99249.27;;;17.02;72.37
81997;BME280;71500;50.806;8.774;2023-07-31T04:24:19;99247.88;;;17.01;72.34
81997;BME280;71500;50.806;8.774;2023-07-31T04:26:55;99243.08;;;17.01;72.31
81997;BME280;71500;50.806;8.774;2023-07-31T04:29:27;99242.50;;;17.01;72.12
81997;BME280;71500;50.806;8.774;2023-07-31T04:31:58;99238.93;;;17.04;72.37
81997;BME280;71500;50.806;8.774;2023-07-31T04:34:30;99239.86;;;17.05;72.38
81997;BME280;71500;50.806;8.774;2023-07-31T04:37:01;99239.87;;;17.06;72.33
81997;BME280;71500;50.806;8.774;2023-07-31T04:39:33;99239.06;;;17.07;72.38
81997;BME280;71500;50.806;8.774;2023-07-31T04:42:05;99234.98;;;17.08;72.49
81997;BME280;71500;50.806;8.774;2023-07-31T04:44:37;99236.46;;;17.09;72.56
81997;BME280;71500;50.806;8.774;2023-07-31T04:47:09;99240.30;;;17.10;72.62
81997;BME280;71500;50.806;8.774;2023-07-31T04:49:40;99243.02;;;17.10;72.58
81997;BME280;71500;50.806;8.774;2023-07-31T04:52:12;99237.45;;;17.09;72.71
81997;BME280;71500;50.806;8.774;2023-07-31T04:54:43;99242.63;;;17.09;72.72
81997;BME280;71500;50.806;8.774;2023-07-31T04:57:15;99241.27;;;17.11;72.89
81997;BME280;71500;50.806;8.774;2023-07-31T04:59:47;99241.35;;;17.13;72.77
81997;BME280;71500;50.806;8.774;2023-07-31T05:02:20;99239.58;;;17.13;73.05
81997;BME280;71500;50.806;8.774;2023-07-31T05:04:52;99242.91;;;17.12;73.37
81997;BME280;71500;50.806;8.774;2023-07-31T05:07:24;99237.92;;;17.10;73.86
81997;BME280;71500;50.806;8.774;2023-07-31T05:09:55;99238.16;;;17.09;73.50
81997;BME280;71500;50.806;8.774;2023-07-31T05:12:28;99239.05;;;17.10;73.29
81997;BME280;71500;50.806;8.774;2023-07-31T05:14:59;99230.63;;;17.09;73.47
81997;BME280;71500;50.806;8.774;2023-07-31T05:17:31;99230.73;;;17.09;73.36
81997;BME280;71500;50.806;8.774;2023-07-31T05:20:03;99229.05;;;17.11;73.03
81997;BME280;71500;50.806;8.774;2023-07-31T05:22:34;99229.22;;;17.15;72.72
81997;BME280;71500;50.806;8.774;2023-07-31T05:25:07;99230.38;;;17.19;72.31
81997;BME280;71500;50.806;8.774;2023-07-31T05:27:39;99221.33;;;17.21;71.90
81997;BME280;71500;50.806;8.774;2023-07-31T05:30:11;99220.77;;;17.23;71.76
81997;BME280;71500;50.806;8.774;2023-07-31T05:32:42;99224.05;;;17.24;71.65
81997;BME280;71500;50.806;8.774;2023-07-31T05:35:14;99225.72;;;17.25;71.59
81997;BME280;71500;50.806;8.774;2023-07-31T05:37:46;99222.36;;;17.26;71.49
81997;BME280;71500;50.806;8.774;2023-07-31T05:40:17;99227.88;;;17.26;71.18
81997;BME280;71500;50.806;8.774;2023-07-31T05:42:49;99224.93;;;17.25;70.97
81997;BME280;71500;50.806;8.774;2023-07-31T05:45:20;99223.02;;;17.25;71.05
81997;BME280;71500;50.806;8.774;2023-07-31T05:47:52;99214.20;;;17.25;70.94
81997;BME280;71500;50.806;8.774;2023-07-31T05:50:23;99217.31;;;17.29;70.95
81997;BME280;71500;50.806;8.774;2023-07-31T05:52:55;99217.27;;;17.32;70.83
81997;BME280;71500;50.806;8.774;2023-07-31T05:55:27;99212.72;;;17.34;70.81
81997;BME280;71500;50.806;8.774;2023-07-31T05:57:59;99207.19;;;17.35;70.79
81997;BME280;71500;50.806;8.774;2023-07-31T06:00:30;99213.31;;;17.36;70.73
81997;BME280;71500;50.806;8.774;2023-07-31T06:03:02;99209.90;;;17.36;70.74
81997;BME280;71500;50.806;8.774;2023-07-31T06:05:35;99217.52;;;17.37;70.66
81997;BME280;71500;50.806;8.774;2023-07-31T06:08:06;99213.58;;;17.37;70.69
81997;BME280;71500;50.806;8.774;2023-07-31T06:10:38;99213.45;;;17.36;70.59
81997;BME280;71500;50.806;8.774;2023-07-31T06:13:09;99217.02;;;17.41;70.55
81997;BME280;71500;50.806;8.774;2023-07-31T06:15:41;99216.23;;;17.44;70.52
81997;BME280;71500;50.806;8.774;2023-07-31T06:18:12;99214.58;;;17.47;70.49
81997;BME280;71500;50.806;8.774;2023-07-31T06:20:44;99206.56;;;17.48;70.57
81997;BME280;71500;50.806;8.774;2023-07-31T06:23:16;99209.02;;;17.50;70.71
81997;BME280;71500;50.806;8.774;2023-07-31T06:25:48;99210.69;;;17.51;70.71
81997;BME280;71500;50.806;8.774;2023-07-31T06:28:20;99206.48;;;17.52;70.81
81997;BME280;71500;50.806;8.774;2023-07-31T06:30:52;99205.23;;;17.52;70.72
81997;BME280;71500;50.806;8.774;2023-07-31T06:33:24;99199.42;;;17.52;70.62
81997;BME280;71500;50.806;8.774;2023-07-31T06:35:56;99198.54;;;17.55;70.56
81997;BME280;71500;50.806;8.774;2023-07-31T06:38:28;99199.00;;;17.57;70.47
81997;BME280;71500;50.806;8.774;2023-07-31T06:40:59;99200.18;;;17.58;70.45
81997;BME280;71500;50.806;8.774;2023-07-31T06:43:31;99198.95;;;17.59;70.79
81997;BME280;71500;50.806;8.774;2023-07-31T06:46:06;99198.12;;;17.59;70.56
81997;BME280;71500;50.806;8.774;2023-07-31T06:48:38;99194.57;;;17.61;70.65
81997;BME280;71500;50.806;8.774;2023-07-31T06:51:09;99194.58;;;17.62;70.70
81997;BME280;71500;50.806;8.774;2023-07-31T06:53:41;99194.67;;;17.63;70.83
81997;BME280;71500;50.806;8.774;2023-07-31T06:56:15;99189.46;;;17.69;70.93
81997;BME280;71500;50.806;8.774;2023-07-31T06:58:47;99194.67;;;17.73;70.92
81997;BME280;71500;50.806;8.774;2023-07-31T07:01:18;99190.55;;;17.76;70.80
81997;BME280;71500;50.806;8.774;2023-07-31T07:03:50;99186.15;;;17.79;70.77
81997;BME280;71500;50.806;8.774;2023-07-31T07:06:23;99181.37;;;17.83;70.68
81997;BME280;71500;50.806;8.774;2023-07-31T07:08:55;99189.01;;;17.86;70.55
81997;BME280;71500;50.806;8.774;2023-07-31T07:11:26;99193.48;;;17.89;70.35
81997;BME280;71500;50.806;8.774;2023-07-31T07:13:58;99195.19;;;17.92;70.40
81997;BME280;71500;50.806;8.774;2023-07-31T07:16:30;99190.66;;;17.95;70.18
81997;BME280;71500;50.806;8.774;2023-07-31T07:19:02;99196.45;;;18.00;69.88
81997;BME280;71500;50.806;8.774;2023-07-31T07:21:35;99192.37;;;18.04;69.91
81997;BME280;71500;50.806;8.774;2023-07-31T07:24:07;99189.99;;;18.07;69.71
81997;BME280;71500;50.806;8.774;2023-07-31T07:26:38;99186.69;;;18.11;69.67
81997;BME280;71500;50.806;8.774;2023-07-31T07:29:10;99182.97;;;18.13;69.68
81997;BME280;71500;50.806;8.774;2023-07-31T07:31:42;99184.55;;;18.13;69.57
81997;BME280;71500;50.806;8.774;2023-07-31T07:34:13;99182.11;;;18.14;69.64
81997;BME280;71500;50.806;8.774;2023-07-31T07:36:45;99177.36;;;18.16;69.55
81997;BME280;71500;50.806;8.774;2023-07-31T07:39:16;99170.67;;;18.20;69.33
81997;BME280;71500;50.806;8.774;2023-07-31T07:41:48;99165.09;;;18.22;69.22
81997;BME280;71500;50.806;8.774;2023-07-31T07:44:20;99169.81;;;18.23;69.25
81997;BME280;71500;50.806;8.774;2023-07-31T07:46:52;99174.05;;;18.23;69.16
81997;BME280;71500;50.806;8.774;2023-07-31T07:49:23;99180.71;;;18.23;69.05
81997;BME280;71500;50.806;8.774;2023-07-31T07:51:55;99176.73;;;18.21;69.11
81997;BME280;71500;50.806;8.774;2023-07-31T07:54:26;99180.09;;;18.20;69.06
81997;BME280;71500;50.806;8.774;2023-07-31T07:56:58;99179.41;;;18.18;69.07
81997;BME280;71500;50.806;8.774;2023-07-31T07:59:30;99177.81;;;18.21;68.92
81997;BME280;71500;50.806;8.774;2023-07-31T08:02:02;99170.76;;;18.21;68.88
81997;BME280;71500;50.806;8.774;2023-07-31T08:04:34;99167.26;;;18.20;68.86
81997;BME280;71500;50.806;8.774;2023-07-31T08:07:06;99167.76;;;18.19;68.96
81997;BME280;71500;50.806;8.774;2023-07-31T08:09:38;99166.89;;;18.19;69.24
81997;BME280;71500;50.806;8.774;2023-07-31T08:12:10;99164.41;;;18.20;69.33
81997;BME280;71500;50.806;8.774;2023-07-31T08:14:43;99157.09;;;18.23;69.50
81997;BME280;71500;50.806;8.774;2023-07-31T08:17:15;99159.36;;;18.28;69.58
81997;BME280;71500;50.806;8.774;2023-07-31T08:19:46;99158.12;;;18.32;69.62
81997;BME280;71500;50.806;8.774;2023-07-31T08:22:18;99151.88;;;18.36;69.34
81997;BME280;71500;50.806;8.774;2023-07-31T08:24:50;99148.80;;;18.40;69.52
81997;BME280;71500;50.806;8.774;2023-07-31T08:27:21;99150.77;;;18.46;69.65
81997;BME280;71500;50.806;8.774;2023-07-31T08:29:54;99146.71;;;18.49;69.58
81997;BME280;71500;50.806;8.774;2023-07-31T08:32:26;99151.66;;;18.53;69.74
81997;BME280;71500;50.806;8.774;2023-07-31T08:34:57;99156.67;;;18.54;69.42
81997;BME280;71500;50.806;8.774;2023-07-31T08:37:29;99163.50;;;18.57;69.19
81997;BME280;71500;50.806;8.774;2023-07-31T08:40:01;99168.33;;;18.61;69.00
81997;BME280;71500;50.806;8.774;2023-07-31T08:42:33;99164.02;;;18.64;68.73
81997;BME280;71500;50.806;8.774;2023-07-31T08:45:06;99154.48;;;18.66;68.76
81997;BME280;71500;50.806;8.774;2023-07-31T08:47:38;99151.47;;;18.68;68.62
81997;BME280;71500;50.806;8.774;2023-07-31T08:50:11;99146.20;;;18.71;68.44
81997;BME280;71500;50.806;8.774;2023-07-31T08:52:43;99114.17;;;18.56;68.41
81997;BME280;71500;50.806;8.774;2023-07-31T08:55:15;99140.17;;;18.77;68.22
81997;BME280;71500;50.806;8.774;2023-07-31T08:57:47;99138.84;;;18.79;68.10
81997;BME280;71500;50.806;8.774;2023-07-31T09:00:19;99137.52;;;18.80;67.91
81997;BME280;71500;50.806;8.774;2023-07-31T09:02:59;99137.16;;;18.87;67.62
81997;BME280;71500;50.806;8.774;2023-07-31T09:05:33;99130.82;;;18.89;67.72
81997;BME280;71500;50.806;8.774;2023-07-31T09:08:06;99138.67;;;18.89;67.60
81997;BME280;71500;50.806;8.774;2023-07-31T09:10:43;99131.15;;;18.89;67.69
81997;BME280;71500;50.806;8.774;2023-07-31T09:13:16;99134.23;;;18.87;67.41
81997;BME280;71500;50.806;8.774;2023-07-31T09:15:48;99135.42;;;18.85;67.06
81997;BME280;71500;50.806;8.774;2023-07-31T09:18:19;99138.08;;;18.84;67.13
81997;BME280;71500;50.806;8.774;2023-07-31T09:21:03;99139.60;;;18.84;67.38
81997;BME280;71500;50.806;8.774;2023-07-31T09:23:45;99138.77;;;18.83;67.29
81997;BME280;71500;50.806;8.774;2023-07-31T09:26:31;99129.72;;;18.85;66.93
81997;BME280;71500;50.806;8.774;2023-07-31T09:29:06;99121.44;;;18.90;66.66
81997;BME280;71500;50.806;8.774;2023-07-31T09:31:42;99124.14;;;18.94;66.56
81997;BME280;71500;50.806;8.774;2023-07-31T09:34:15;99125.20;;;18.98;66.34
81997;BME280;71500;50.806;8.774;2023-07-31T09:36:48;99121.79;;;19.01;66.38
81997;BME280;71500;50.806;8.774;2023-07-31T09:39:20;99118.98;;;19.04;66.35
81997;BME280;71500;50.806;8.774;2023-07-31T09:41:56;99113.91;;;19.06;66.04
81997;BME280;71500;50.806;8.774;2023-07-31T09:44:40;99112.83;;;19.07;65.90
81997;BME280;71500;50.806;8.774;2023-07-31T09:47:23;99117.23;;;19.07;65.73
81997;BME280;71500;50.806;8.774;2023-07-31T09:49:56;99116.49;;;19.07;65.95
81997;BME280;71500;50.806;8.774;2023-07-31T09:52:28;99119.52;;;19.06;66.12
81997;BME280;71500;50.806;8.774;2023-07-31T09:55:00;99122.02;;;19.08;66.07
81997;BME280;71500;50.806;8.774;2023-07-31T09:57:31;99120.52;;;19.08;66.03
81997;BME280;71500;50.806;8.774;2023-07-31T10:00:05;99124.67;;;19.11;66.01
81997;BME280;71500;50.806;8.774;2023-07-31T10:02:40;99125.91;;;19.10;66.05
81997;BME280;71500;50.806;8.774;2023-07-31T10:05:14;99129.70;;;19.09;66.24
81997;BME280;71500;50.806;8.774;2023-07-31T10:07:53;99137.75;;;19.04;66.48
81997;BME280;71500;50.806;8.774;2023-07-31T10:10:26;99136.15;;;18.97;66.63
81997;BME280;71500;50.806;8.774;2023-07-31T10:12:59;99130.11;;;18.93;66.61
81997;BME280;71500;50.806;8.774;2023-07-31T10:15:29;99128.87;;;18.91;66.64
81997;BME280;71500;50.806;8.774;2023-07-31T10:18:02;99129.10;;;18.86;66.41
81997;BME280;71500;50.806;8.774;2023-07-31T10:20:37;99126.61;;;18.80;66.61
81997;BME280;71500;50.806;8.774;2023-07-31T10:23:09;99122.40;;;18.77;67.08
81997;BME280;71500;50.806;8.774;2023-07-31T10:25:41;99124.19;;;18.74;67.31
81997;BME280;71500;50.806;8.774;2023-07-31T10:28:13;99115.95;;;18.72;67.50
81997;BME280;71500;50.806;8.774;2023-07-31T10:30:45;99116.49;;;18.71;67.59
81997;BME280;71500;50.806;8.774;2023-07-31T10:33:18;99114.51;;;18.70;67.50
81997;BME280;71500;50.806;8.774;2023-07-31T10:35:50;99120.69;;;18.72;67.35
81997;BME280;71500;50.806;8.774;2023-07-31T10:38:29;99117.12;;;18.72;67.28
81997;BME280;71500;50.806;8.774;2023-07-31T10:41:10;99113.33;;;18.68;67.41
81997;BME280;71500;50.806;8.774;2023-07-31T10:43:41;99115.64;;;18.65;67.53
81997;BME280;71500;50.806;8.774;2023-07-31T10:46:14;99106.14;;;18.64;67.72
81997;BME280;71500;50.806;8.774;2023-07-31T10:48:46;99107.21;;;18.62;67.93
81997;BME280;71500;50.806;8.774;2023-07-31T10:51:34;99111.56;;;18.59;68.27
81997;BME280;71500;50.806;8.774;2023-07-31T10:54:13;99110.74;;;18.61;68.65
81997;BME280;71500;50.806;8.774;2023-07-31T10:56:47;99104.48;;;18.60;69.02
81997;BME280;71500;50.806;8.774;2023-07-31T10:59:27;99101.48;;;18.58;69.42
81997;BME280;71500;50.806;8.774;2023-07-31T11:02:06;99104.68;;;18.57;69.84
81997;BME280;71500;50.806;8.774;2023-07-31T11:05:11;99099.64;;;18.53;69.95
81997;BME280;71500;50.806;8.774;2023-07-31T11:07:49;99098.88;;;18.49;70.33
81997;BME280;71500;50.806;8.774;2023-07-31T11:10:20;99091.96;;;18.51;70.64
81997;BME280;71500;50.806;8.774;2023-07-31T11:12:55;99092.91;;;18.51;70.79
81997;BME280;71500;50.806;8.774;2023-07-31T11:15:29;99090.21;;;18.48;70.82
81997;BME280;71500;50.806;8.774;2023-07-31T11:18:01;99083.92;;;18.47;70.89
81997;BME280;71500;50.806;8.774;2023-07-31T11:20:36;99083.52;;;18.47;71.12
81997;BME280;71500;50.806;8.774;2023-07-31T11:23:11;99084.11;;;18.50;71.27
81997;BME280;71500;50.806;8.774;2023-07-31T11:25:43;99080.10;;;18.54;70.81
81997;BME280;71500;50.806;8.774;2023-07-31T11:28:16;99079.20;;;18.57;70.29
81997;BME280;71500;50.806;8.774;2023-07-31T11:30:49;99075.35;;;18.57;70.25
81997;BME280;71500;50.806;8.774;2023-07-31T11:33:20;99073.68;;;18.58;70.23
81997;BME280;71500;50.806;8.774;2023-07-31T11:35:52;99069.70;;;18.58;70.20
81997;BME280;71500;50.806;8.774;2023-07-31T11:38:25;99073.06;;;18.58;70.37
81997;BME280;71500;50.806;8.774;2023-07-31T11:40:55;99066.55;;;18.58;70.45
81997;BME280;71500;50.806;8.774;2023-07-31T11:43:28;99064.44;;;18.60;70.42
81997;BME280;71500;50.806;8.774;2023-07-31T11:46:00;99059.13;;;18.63;70.45
81997;BME280;71500;50.806;8.774;2023-07-31T11:48:36;99054.70;;;18.67;70.51
81997;BME280;71500;50.806;8.774;2023-07-31T11:51:09;99053.14;;;18.71;70.62
81997;BME280;71500;50.806;8.774;2023-07-31T11:53:44;99049.90;;;18.75;70.52
81997;BME280;71500;50.806;8.774;2023-07-31T11:56:19;99043.14;;;18.78;70.52
81997;BME280;71500;50.806;8.774;2023-07-31T11:58:54;99046.80;;;18.81;70.36
81997;BME280;71500;50.806;8.774;2023-07-31T12:01:27;99046.39;;;18.83;70.27
81997;BME280;71500;50.806;8.774;2023-07-31T12:03:59;99045.81;;;18.84;70.15
81997;BME280;71500;50.806;8.774;2023-07-31T12:06:35;99044.73;;;18.86;70.15
81997;BME280;71500;50.806;8.774;2023-07-31T12:09:08;99043.23;;;18.90;70.20
81997;BME280;71500;50.806;8.774;2023-07-31T12:11:45;99041.33;;;18.95;70.15
81997;BME280;71500;50.806;8.774;2023-07-31T12:14:23;99043.41;;;18.98;70.06
81997;BME280;71500;50.806;8.774;2023-07-31T12:16:56;99037.94;;;19.00;70.07
81997;BME280;71500;50.806;8.774;2023-07-31T12:19:26;99033.61;;;19.03;70.01
81997;BME280;71500;50.806;8.774;2023-07-31T12:22:00;99030.17;;;19.05;69.80
81997;BME280;71500;50.806;8.774;2023-07-31T12:24:35;99029.88;;;19.06;69.78
81997;BME280;71500;50.806;8.774;2023-07-31T12:27:13;99028.05;;;19.07;69.70
81997;BME280;71500;50.806;8.774;2023-07-31T12:29:45;99020.95;;;19.11;69.50
81997;BME280;71500;50.806;8.774;2023-07-31T12:32:24;99011.33;;;19.17;69.36
81997;BME280;71500;50.806;8.774;2023-07-31T12:35:01;99011.44;;;19.22;69.00
81997;BME280;71500;50.806;8.774;2023-07-31T12:37:37;99006.49;;;19.27;68.54
81997;BME280;71500;50.806;8.774;2023-07-31T12:40:11;99003.27;;;19.31;68.26
81997;BME280;71500;50.806;8.774;2023-07-31T12:42:43;98995.59;;;19.34;68.10
81997;BME280;71500;50.806;8.774;2023-07-31T12:45:15;98991.39;;;19.37;67.80
81997;BME280;71500;50.806;8.774;2023-07-31T12:47:47;98991.21;;;19.40;67.84
81997;BME280;71500;50.806;8.774;2023-07-31T12:50:19;98984.77;;;19.42;67.80
81997;BME280;71500;50.806;8.774;2023-07-31T12:52:51;98981.94;;;19.44;67.70
81997;BME280;71500;50.806;8.774;2023-07-31T12:55:23;98983.27;;;19.48;67.30
81997;BME280;71500;50.806;8.774;2023-07-31T12:57:54;98980.56;;;19.49;66.95
81997;BME280;71500;50.806;8.774;2023-07-31T13:00:26;98976.91;;;19.50;66.88
81997;BME280;71500;50.806;8.774;2023-07-31T13:02:57;98971.09;;;19.52;66.60
81997;BME280;71500;50.806;8.774;2023-07-31T13:05:29;98966.02;;;19.54;66.33
81997;BME280;71500;50.806;8.774;2023-07-31T13:08:01;98963.88;;;19.57;66.38
81997;BME280;71500;50.806;8.774;2023-07-31T13:10:33;98963.61;;;19.65;65.94
81997;BME280;71500;50.806;8.774;2023-07-31T13:13:04;98962.05;;;19.71;65.56
81997;BME280;71500;50.806;8.774;2023-07-31T13:15:36;98963.86;;;19.75;64.96
81997;BME280;71500;50.806;8.774;2023-07-31T13:18:08;98965.84;;;19.78;64.85
81997;BME280;71500;50.806;8.774;2023-07-31T13:20:39;98969.37;;;19.81;64.68
81997;BME280;71500;50.806;8.774;2023-07-31T13:23:11;98967.36;;;19.86;64.69
81997;BME280;71500;50.806;8.774;2023-07-31T13:25:42;98963.02;;;19.88;64.59
81997;BME280;71500;50.806;8.774;2023-07-31T13:28:14;98967.09;;;19.90;64.50
81997;BME280;71500;50.806;8.774;2023-07-31T13:30:46;98964.11;;;19.92;64.05